Time;durP1;ratioP1;P1;durP2;ratioP2;P2;SDS_P1;SDS_P2;PMS_P1;PMS_P2;Temp;Humidity;BMP_temperature;BMP_pressure;BME280_temperature;BME280_humidity;BME280_pressure;Samples;Min_cycle;Max_cycle;Signal;HPM_P1;HPM_P2
2023/01/07 00:01:17;;;;;;;32.60;20.48;;;;;;;2.09;81.43;101338.81;1650750;85;21073;-89
2023/01/07 00:03:45;;;;;;;31.55;20.60;;;;;;;2.09;81.66;101341.81;1640619;87;21088;-89
2023/01/07 00:06:21;;;;;;;34.03;18.00;;;;;;;2.11;81.82;101332.43;1662393;84;21108;-89
2023/01/07 00:08:49;;;;;;;30.35;20.23;;;;;;;2.15;82.07;101334.44;1667439;85;21104;-89
2023/01/07 00:11:19;;;;;;;28.27;17.02;;;;;;;2.17;81.98;101331.95;1713166;82;22570;-89
2023/01/07 00:13:48;;;;;;;32.63;20.00;;;;;;;2.19;82.17;101345.52;1703762;83;21041;-89
2023/01/07 00:16:18;;;;;;;35.30;21.60;;;;;;;2.27;82.39;101341.77;1680920;83;21086;-90
2023/01/07 00:18:45;;;;;;;35.45;19.25;;;;;;;2.35;82.51;101333.20;1702751;82;21211;-90
2023/01/07 00:21:15;;;;;;;48.92;30.48;;;;;;;2.39;82.44;101330.00;1705564;83;21043;-90
2023/01/07 00:23:42;;;;;;;77.85;51.02;;;;;;;2.38;82.35;101335.09;1712327;82;21779;-79
2023/01/07 00:26:14;;;;;;;117.67;76.28;;;;;;;2.45;82.57;101347.29;1681093;82;21125;-79
2023/01/07 00:28:50;;;;;;;147.25;79.25;;;;;;;2.55;82.74;101340.11;1702617;82;21080;-89
2023/01/07 00:31:22;;;;;;;90.22;56.05;;;;;;;2.64;82.78;101332.93;1706486;83;21169;-88
2023/01/07 00:36:31;;;;;;;74.40;47.05;;;;;;;2.62;82.49;101340.62;1703453;83;22549;-88
2023/01/07 00:39:01;;;;;;;114.22;79.47;;;;;;;2.54;82.60;101331.42;1680274;82;21119;-88
2023/01/07 00:41:29;;;;;;;67.50;42.85;;;;;;;2.71;82.86;101358.13;1702392;83;21076;-89
2023/01/07 00:43:56;;;;;;;56.58;30.77;;;;;;;2.78;82.93;101346.45;1703147;83;21041;-89
2023/01/07 00:46:24;;;;;;;60.15;34.00;;;;;;;2.83;82.91;101346.73;1698566;83;21635;-90
2023/01/07 00:48:53;;;;;;;53.63;32.55;;;;;;;2.87;82.88;101347.05;1661910;86;21833;-89
2023/01/07 00:51:20;;;;;;;57.65;30.85;;;;;;;2.91;82.88;101339.95;1661139;85;21107;-89
2023/01/07 00:53:47;;;;;;;57.38;33.25;;;;;;;2.90;82.71;101335.53;1618801;84;21096;-89
2023/01/07 00:56:14;;;;;;;62.15;37.00;;;;;;;2.88;82.62;101338.84;1640869;86;21123;-89
2023/01/07 00:58:41;;;;;;;66.07;41.00;;;;;;;2.81;82.57;101343.14;1613597;85;21070;-89
2023/01/07 01:01:09;;;;;;;104.58;62.33;;;;;;;2.86;82.75;101353.04;1650168;85;21507;-89
2023/01/07 01:03:36;;;;;;;120.80;73.02;;;;;;;2.90;82.88;101351.13;1655927;86;21038;-89
2023/01/07 01:06:07;;;;;;;123.30;74.92;;;;;;;2.96;82.93;101353.64;1704178;83;21104;-80
2023/01/07 01:08:33;;;;;;;96.37;54.00;;;;;;;2.97;82.97;101351.56;1703426;82;21127;-81
2023/01/07 01:11:07;;;;;;;95.70;57.67;;;;;;;3.03;82.94;101360.64;1703536;82;21078;-80
2023/01/07 01:13:34;;;;;;;70.85;42.60;;;;;;;3.08;82.99;101360.55;1703672;82;21970;-81
2023/01/07 01:16:01;;;;;;;56.75;32.08;;;;;;;3.11;82.84;101354.63;1715506;82;21055;-81
2023/01/07 01:18:28;;;;;;;64.32;36.63;;;;;;;3.08;82.56;101358.36;1707115;82;21564;-81
2023/01/07 01:20:54;;;;;;;35.98;19.48;;;;;;;3.03;82.44;101359.34;1707307;82;21076;-81
2023/01/07 01:23:23;;;;;;;37.35;23.57;;;;;;;3.02;82.50;101360.16;1704461;82;21023;-81
2023/01/07 01:25:50;;;;;;;57.60;35.60;;;;;;;3.05;82.61;101359.45;1704533;81;22496;-81
2023/01/07 01:28:17;;;;;;;52.78;29.50;;;;;;;3.08;82.63;101359.25;1703408;82;21059;-81
2023/01/07 01:30:43;;;;;;;56.88;32.00;;;;;;;3.10;82.64;101357.64;1702902;82;21752;-81
2023/01/07 01:33:10;;;;;;;32.08;19.12;;;;;;;3.09;82.63;101349.33;1707686;82;21331;-81
2023/01/07 01:35:40;;;;;;;36.90;21.30;;;;;;;3.06;82.40;101354.72;1703937;82;22250;-81
2023/01/07 01:38:07;;;;;;;80.38;44.00;;;;;;;3.02;82.47;101364.44;1711506;82;21820;-81
2023/01/07 01:40:34;;;;;;;60.03;38.28;;;;;;;3.04;82.51;101362.83;1702809;83;20977;-80
2023/01/07 01:43:01;;;;;;;64.77;37.93;;;;;;;2.98;82.35;101363.74;1704960;82;20970;-81
2023/01/07 01:45:27;;;;;;;86.85;53.35;;;;;;;2.88;82.25;101362.25;1706703;83;22117;-80
2023/01/07 01:48:04;;;;;;;64.55;38.48;;;;;;;2.79;82.23;101373.34;1716601;82;21059;-80
2023/01/07 01:50:37;;;;;;;89.95;62.65;;;;;;;2.68;82.22;101381.34;1700822;82;21823;-80
2023/01/07 01:53:09;;;;;;;88.97;56.77;;;;;;;2.61;82.40;101380.42;1712572;82;21963;-81
2023/01/07 01:55:41;;;;;;;158.07;102.97;;;;;;;2.57;82.60;101378.80;1709244;83;21545;-81
2023/01/07 01:58:15;;;;;;;143.70;101.38;;;;;;;2.55;82.81;101390.38;1708532;83;21022;-81
2023/01/07 02:00:42;;;;;;;115.92;78.45;;;;;;;2.55;82.99;101377.80;1708967;83;21004;-81
2023/01/07 02:03:12;;;;;;;76.17;48.02;;;;;;;2.55;83.07;101392.09;1710147;82;22944;-81
2023/01/07 02:05:40;;;;;;;89.60;56.65;;;;;;;2.53;83.19;101391.60;1711660;82;22397;-81
2023/01/07 02:08:07;;;;;;;105.60;67.15;;;;;;;2.55;83.32;101387.78;1689488;82;20988;-81
2023/01/07 02:10:34;;;;;;;111.42;70.30;;;;;;;2.45;83.34;101366.78;1709991;83;20999;-81
2023/01/07 02:13:39;;;;;;;104.72;69.92;;;;;;;2.56;83.35;101383.51;1712319;82;21070;-80
2023/01/07 02:16:14;;;;;;;176.68;120.67;;;;;;;2.54;83.49;101383.40;1713051;82;21734;-80
2023/01/07 02:19:16;;;;;;;81.63;53.85;;;;;;;2.52;83.54;101388.48;1708371;82;21216;-81
2023/01/07 02:22:24;;;;;;;62.30;39.40;;;;;;;2.51;83.64;101381.47;1710753;82;21433;-81
2023/01/07 02:25:17;;;;;;;68.87;43.25;;;;;;;2.51;83.70;101374.98;1713107;82;20970;-80
2023/01/07 02:28:13;;;;;;;42.05;23.90;;;;;;;2.53;83.92;101378.61;1710182;82;20981;-80
2023/01/07 02:31:06;;;;;;;40.95;20.35;;;;;;;2.57;84.08;101375.79;1713311;82;21732;-80
2023/01/07 02:33:51;;;;;;;42.48;29.42;;;;;;;2.64;84.36;101372.81;1709977;83;21014;-80
2023/01/07 02:36:32;;;;;;;37.13;19.95;;;;;;;2.75;84.64;101373.94;1710350;82;21564;-80
2023/01/07 02:39:10;;;;;;;46.48;31.00;;;;;;;2.86;84.83;101372.54;1713357;82;20992;-80
2023/01/07 02:41:44;;;;;;;51.35;32.70;;;;;;;2.98;84.90;101368.94;1712479;82;21045;-79
2023/01/07 02:44:31;;;;;;;60.88;39.88;;;;;;;3.06;84.75;101367.73;1713258;82;22563;-79
2023/01/07 02:47:15;;;;;;;96.47;66.75;;;;;;;3.07;84.51;101371.73;1713273;82;20992;-83
2023/01/07 02:49:41;;;;;;;106.85;65.67;;;;;;;3.09;84.42;101370.55;1710702;82;20989;-82
2023/01/07 02:52:23;;;;;;;162.22;95.17;;;;;;;3.12;84.31;101372.05;1716209;82;21595;-83
2023/01/07 02:55:15;;;;;;;117.45;64.30;;;;;;;3.10;84.21;101364.14;1716472;82;21032;-90
2023/01/07 02:58:08;;;;;;;81.12;48.33;;;;;;;3.14;84.21;101378.66;1687891;83;21956;-81
2023/01/07 03:00:52;;;;;;;235.10;122.87;;;;;;;3.16;84.14;101379.25;1704309;83;21079;-82
2023/01/07 03:03:42;;;;;;;;;;;;;;;3.12;83.97;101383.76;1702692;83;21845;-82
2023/01/07 03:06:23;;;;;;;249.00;124.20;;;;;;;3.13;84.08;101382.94;1709697;82;20415;-82
2023/01/07 03:09:13;;;;;;;207.50;99.65;;;;;;;3.19;84.23;101389.87;1709284;83;21029;-82
2023/01/07 03:12:15;;;;;;;136.92;68.95;;;;;;;3.25;84.32;101386.77;1701359;83;22987;-83
2023/01/07 03:14:51;;;;;;;64.30;33.98;;;;;;;3.33;84.37;101388.55;1672034;84;21079;-82
2023/01/07 03:17:27;;;;;;;45.25;21.42;;;;;;;3.39;84.34;101384.62;1705480;82;21075;-91
2023/01/07 03:19:55;;;;;;;44.38;20.30;;;;;;;3.47;84.48;101391.23;1708699;82;21091;-88
2023/01/07 03:22:24;;;;;;;62.38;30.05;;;;;;;3.55;84.33;101397.31;1711163;83;21063;-88
2023/01/07 03:24:51;;;;;;;102.60;53.00;;;;;;;3.58;84.24;101394.91;1716361;82;21909;-89
2023/01/07 03:27:21;;;;;;;104.12;51.73;;;;;;;3.62;84.23;101404.33;1692641;83;21076;-89
2023/01/07 03:29:49;;;;;;;129.97;62.55;;;;;;;3.67;84.20;101401.59;1712606;82;21046;-89
2023/01/07 03:32:21;;;;;;;154.35;76.22;;;;;;;3.74;84.08;101405.91;1706885;83;21047;-90
2023/01/07 03:34:48;;;;;;;142.28;76.15;;;;;;;3.78;84.05;101404.88;1709163;83;21530;-90
2023/01/07 03:37:21;;;;;;;113.57;62.00;;;;;;;3.84;84.04;101407.86;1710896;82;21741;-90
2023/01/07 03:39:48;;;;;;;82.25;45.98;;;;;;;3.88;84.02;101406.35;1693751;83;21035;-89
2023/01/07 03:45:00;;;;;;;118.65;59.25;;;;;;;3.91;83.74;101415.67;1684618;84;21077;-90
2023/01/07 03:47:27;;;;;;;109.05;55.50;;;;;;;3.91;83.60;101418.27;1698859;81;21062;-81
2023/01/07 03:49:54;;;;;;;104.12;54.27;;;;;;;3.89;83.47;101418.17;1717972;82;21770;-81
2023/01/07 03:52:21;;;;;;;80.05;43.48;;;;;;;3.86;83.51;101412.76;1706475;82;21068;-80
2023/01/07 03:54:48;;;;;;;89.65;48.87;;;;;;;3.91;83.47;101418.27;1704918;83;21421;-80
2023/01/07 03:57:15;;;;;;;76.47;45.23;;;;;;;3.94;83.45;101421.46;1707476;83;21008;-79
2023/01/07 03:59:41;;;;;;;99.90;57.35;;;;;;;3.95;83.36;101425.88;1717641;82;21004;-80
2023/01/07 04:02:08;;;;;;;73.22;41.98;;;;;;;3.93;83.31;101426.19;1709092;83;22340;-80
2023/01/07 04:04:35;;;;;;;60.28;33.53;;;;;;;3.88;83.22;101429.38;1706555;83;21044;-80
2023/01/07 04:07:02;;;;;;;50.35;27.98;;;;;;;3.84;83.11;101426.09;1713271;82;21392;-80
2023/01/07 04:09:28;;;;;;;40.20;24.85;;;;;;;3.75;82.96;101425.51;1710144;82;21007;-80
2023/01/07 04:11:55;;;;;;;32.40;19.95;;;;;;;3.67;82.90;101426.73;1710480;83;21071;-80
2023/01/07 04:14:22;;;;;;;27.20;16.90;;;;;;;3.61;82.99;101424.64;1706399;82;21736;-80
2023/01/07 04:16:51;;;;;;;25.77;14.03;;;;;;;3.60;83.12;101429.33;1708367;83;20989;-79
2023/01/07 04:19:18;;;;;;;32.10;17.85;;;;;;;3.60;83.16;101429.75;1704198;83;21044;-79
2023/01/07 04:21:45;;;;;;;28.60;16.85;;;;;;;3.61;83.21;101425.05;1687005;83;21003;-79
2023/01/07 04:24:12;;;;;;;23.50;13.25;;;;;;;3.61;83.22;101432.45;1707325;83;21374;-80
2023/01/07 04:26:38;;;;;;;22.00;11.70;;;;;;;3.62;83.31;101431.67;1709977;82;21954;-80
2023/01/07 04:29:05;;;;;;;20.05;11.22;;;;;;;3.61;83.28;101424.64;1708077;82;20961;-80
2023/01/07 04:31:32;;;;;;;20.32;9.80;;;;;;;3.60;83.16;101428.03;1714405;82;21389;-80
2023/01/07 04:33:59;;;;;;;19.60;10.68;;;;;;;3.60;83.13;101434.55;1710523;83;21424;-79
2023/01/07 04:36:26;;;;;;;23.60;11.05;;;;;;;3.60;83.19;101430.64;1713022;82;20972;-80
2023/01/07 04:38:52;;;;;;;21.17;11.43;;;;;;;3.60;83.12;101434.95;1704161;83;21778;-80
2023/01/07 04:41:19;;;;;;;17.02;9.23;;;;;;;3.60;83.07;101436.25;1711795;82;20964;-87
2023/01/07 04:43:46;;;;;;;20.43;11.38;;;;;;;3.58;83.06;101433.95;1708149;82;21059;-88
2023/01/07 04:46:13;;;;;;;19.60;8.78;;;;;;;3.58;83.08;101432.66;1702452;83;21557;-89
2023/01/07 04:48:39;;;;;;;21.42;9.45;;;;;;;3.57;83.17;101427.86;1706785;82;21047;-88
2023/01/07 04:51:06;;;;;;;20.90;8.75;;;;;;;3.56;83.13;101430.36;1702804;83;22004;-80
2023/01/07 04:53:33;;;;;;;17.57;9.18;;;;;;;3.54;83.09;101429.36;1702795;82;21110;-80
2023/01/07 04:56:00;;;;;;;18.92;8.18;;;;;;;3.54;83.21;101432.86;1689130;82;21068;-80
2023/01/07 04:58:27;;;;;;;20.10;9.80;;;;;;;3.55;83.26;101430.77;1702066;83;21540;-80
2023/01/07 05:00:57;;;;;;;15.40;8.03;;;;;;;3.57;83.28;101430.88;1700109;82;21748;-80
2023/01/07 05:03:22;;;;;;;20.85;9.55;;;;;;;3.57;83.31;101429.16;1700455;83;21834;-80
2023/01/07 05:05:49;;;;;;;22.75;9.23;;;;;;;3.59;83.40;101434.47;1701612;82;21037;-80
2023/01/07 05:08:15;;;;;;;34.40;18.25;;;;;;;3.59;83.31;101427.97;1703286;82;21091;-80
2023/01/07 05:10:42;;;;;;;31.55;16.77;;;;;;;3.61;83.39;101426.36;1701417;82;22167;-80
2023/01/07 05:13:18;;;;;;;50.90;29.60;;;;;;;3.60;83.34;101428.44;1699240;83;21203;-80
2023/01/07 05:15:45;;;;;;;38.83;22.87;;;;;;;3.61;83.45;101430.27;1707424;82;22432;-80
2023/01/07 05:18:12;;;;;;;18.17;11.30;;;;;;;3.62;83.44;101438.17;1706284;82;21053;-80
2023/01/07 05:20:39;;;;;;;30.92;15.40;;;;;;;3.63;83.39;101437.77;1705141;82;21859;-80
2023/01/07 05:23:05;;;;;;;37.53;23.40;;;;;;;3.64;83.39;101438.24;1706070;82;21048;-80
2023/01/07 05:25:33;;;;;;;20.43;9.10;;;;;;;3.63;83.37;101443.86;1705062;81;21125;-89
2023/01/07 05:28:00;;;;;;;19.85;9.48;;;;;;;3.63;83.24;101447.77;1709407;82;21802;-89
2023/01/07 05:30:27;;;;;;;26.30;16.97;;;;;;;3.60;83.13;101455.38;1710993;82;21490;-89
2023/01/07 05:32:53;;;;;;;21.85;12.95;;;;;;;3.60;83.15;101458.38;1703200;82;22341;-80
2023/01/07 05:35:22;;;;;;;24.70;11.00;;;;;;;3.59;83.14;101448.38;1703605;82;21086;-80
2023/01/07 05:37:49;;;;;;;15.05;8.55;;;;;;;3.57;83.08;101459.51;1698944;83;21083;-80
2023/01/07 05:40:16;;;;;;;20.88;9.08;;;;;;;3.53;83.03;101453.58;1705476;82;21761;-80
2023/01/07 05:42:43;;;;;;;15.40;6.90;;;;;;;3.49;83.06;101453.40;1701109;83;22244;-80
2023/01/07 05:45:10;;;;;;;15.00;7.33;;;;;;;3.40;82.80;101454.10;1703746;82;22046;-80
2023/01/07 05:47:37;;;;;;;17.82;7.05;;;;;;;3.31;82.79;101456.09;1706603;82;21196;-79
2023/01/07 05:50:05;;;;;;;11.30;6.25;;;;;;;3.26;82.90;101459.69;1713622;82;21134;-84
2023/01/07 05:52:32;;;;;;;13.03;7.58;;;;;;;3.22;82.92;101458.98;1712779;82;21777;-85
2023/01/07 05:54:59;;;;;;;22.02;10.65;;;;;;;3.17;82.81;101455.17;1715785;82;21054;-85
2023/01/07 05:57:25;;;;;;;13.88;7.87;;;;;;;3.09;82.82;101457.68;1707734;82;21060;-86
2023/01/07 05:59:52;;;;;;;16.27;9.45;;;;;;;3.02;82.83;101452.86;1708048;83;21070;-86
2023/01/07 06:02:19;;;;;;;18.67;9.35;;;;;;;2.98;82.92;101466.47;1707005;82;21033;-86
2023/01/07 06:04:46;;;;;;;17.10;8.58;;;;;;;2.94;82.98;101465.36;1688071;84;21852;-87
2023/01/07 06:07:13;;;;;;;17.42;9.10;;;;;;;2.90;83.06;101465.95;1676575;83;21090;-88
2023/01/07 06:09:40;;;;;;;15.18;9.70;;;;;;;2.89;83.15;101477.14;1709776;82;21086;-80
2023/01/07 06:12:07;;;;;;;23.25;9.85;;;;;;;2.85;83.20;101470.86;1708592;83;21070;-88
2023/01/07 06:14:34;;;;;;;23.12;10.00;;;;;;;2.90;83.39;101477.66;1705453;82;21126;-88
2023/01/07 06:17:01;;;;;;;14.47;8.70;;;;;;;2.96;83.50;101479.77;1708159;83;21747;-89
2023/01/07 06:19:28;;;;;;;16.80;9.68;;;;;;;2.97;83.39;101478.58;1708363;83;21051;-88
2023/01/07 06:21:55;;;;;;;19.10;10.23;;;;;;;2.97;83.46;101485.08;1687646;84;20990;-89
2023/01/07 06:24:22;;;;;;;18.52;10.48;;;;;;;2.99;83.48;101485.19;1709459;82;21606;-88
2023/01/07 06:26:49;;;;;;;22.95;13.65;;;;;;;3.01;83.54;101487.48;1712231;82;21127;-89
2023/01/07 06:29:15;;;;;;;21.95;12.65;;;;;;;3.03;83.65;101485.89;1708033;83;22574;-88
2023/01/07 06:31:42;;;;;;;22.60;11.65;;;;;;;3.07;83.68;101486.59;1705524;83;21124;-89
2023/01/07 06:34:10;;;;;;;24.12;12.00;;;;;;;3.09;83.68;101488.48;1705790;83;21076;-88
2023/01/07 06:36:37;;;;;;;27.82;10.93;;;;;;;3.12;83.65;101487.81;1706889;82;21461;-89
2023/01/07 06:39:04;;;;;;;23.15;10.10;;;;;;;3.14;83.55;101491.41;1707952;83;22005;-82
2023/01/07 06:41:31;;;;;;;18.57;7.90;;;;;;;3.15;83.59;101489.29;1707013;83;21740;-81
2023/01/07 06:43:57;;;;;;;17.07;6.80;;;;;;;3.17;83.61;101490.30;1712642;82;21078;-81
2023/01/07 06:46:24;;;;;;;14.83;6.22;;;;;;;3.18;83.52;101487.31;1715607;82;21091;-81
2023/01/07 06:48:51;;;;;;;14.93;6.53;;;;;;;3.17;83.44;101490.30;1714095;82;21094;-81
2023/01/07 06:51:18;;;;;;;13.40;5.12;;;;;;;3.14;83.36;101501.81;1710454;82;21024;-81
2023/01/07 06:53:45;;;;;;;17.52;5.30;;;;;;;3.01;83.27;101477.98;1713492;82;21704;-81
2023/01/07 06:56:12;;;;;;;14.43;5.97;;;;;;;3.08;83.15;101500.11;1712016;82;21074;-82
2023/01/07 06:58:39;;;;;;;13.20;5.97;;;;;;;3.02;83.17;101508.41;1716808;82;21074;-82
2023/01/07 07:01:06;;;;;;;16.80;5.75;;;;;;;2.96;83.16;101507.08;1710892;82;21089;-80
2023/01/07 07:03:33;;;;;;;12.45;5.72;;;;;;;2.88;83.16;101505.26;1688091;82;21435;-80
2023/01/07 07:06:01;;;;;;;16.35;6.08;;;;;;;2.81;83.31;101510.42;1721756;82;21695;-90
2023/01/07 07:08:28;;;;;;;21.48;6.80;;;;;;;2.78;83.37;101515.81;1725722;82;21618;-79
2023/01/07 07:11:04;;;;;;;15.50;6.00;;;;;;;2.75;83.45;101513.02;1718718;82;21528;-90
2023/01/07 07:13:31;;;;;;;13.53;6.12;;;;;;;2.73;83.58;101513.80;1714799;82;21084;-80
2023/01/07 07:15:58;;;;;;;10.35;5.60;;;;;;;2.73;83.63;101514.21;1717235;82;21088;-82
2023/01/07 07:18:25;;;;;;;8.53;5.17;;;;;;;2.73;83.63;101515.51;1715936;82;21799;-82
2023/01/07 07:20:52;;;;;;;13.18;5.58;;;;;;;2.75;83.70;101512.61;1715013;83;21043;-90
2023/01/07 07:23:19;;;;;;;12.00;5.33;;;;;;;2.77;83.73;101516.22;1714813;83;21087;-90
2023/01/07 07:25:53;;;;;;;13.62;4.37;;;;;;;2.80;83.81;101519.04;1715586;83;21066;-91
2023/01/07 07:28:19;;;;;;;;;;;;;;;2.84;83.85;101518.85;1718496;82;21039;-93
2023/01/07 07:30:46;;;;;;;16.65;5.40;;;;;;;2.88;83.91;101515.66;1715436;83;21803;-91
2023/01/07 07:33:13;;;;;;;11.18;4.67;;;;;;;2.94;83.96;101526.47;1715972;83;21087;-93
2023/01/07 07:35:40;;;;;;;14.15;5.12;;;;;;;2.99;84.03;101526.80;1712113;81;21580;-93
2023/01/07 07:38:25;;;;;;;15.28;4.85;;;;;;;3.03;84.03;101528.39;1706121;83;21121;-95
2023/01/07 07:40:52;;;;;;;13.75;5.85;;;;;;;3.07;84.07;101528.20;1718658;82;21048;-85
2023/01/07 07:43:23;;;;;;;10.60;4.75;;;;;;;3.10;84.02;101532.33;1715369;82;21613;-83
2023/01/07 07:45:50;;;;;;;13.50;5.60;;;;;;;3.13;84.00;101538.13;1702983;82;21070;-83
2023/01/07 07:48:16;;;;;;;13.78;5.40;;;;;;;3.15;83.96;101540.02;1704216;82;21358;-83
2023/01/07 07:50:43;;;;;;;15.80;5.80;;;;;;;3.17;83.94;101537.53;1675028;83;21083;-83
2023/01/07 07:53:10;;;;;;;15.23;6.33;;;;;;;3.18;83.92;101536.75;1686771;84;21151;-83
2023/01/07 07:55:37;;;;;;;15.58;6.03;;;;;;;3.19;83.90;101533.33;1688577;84;21729;-84
2023/01/07 07:58:04;;;;;;;17.65;5.97;;;;;;;3.22;83.96;101538.75;1697125;83;21874;-83
2023/01/07 08:00:31;;;;;;;19.37;6.83;;;;;;;3.26;84.00;101534.25;1696261;84;21626;-84
2023/01/07 08:02:58;;;;;;;18.85;6.05;;;;;;;3.30;84.03;101534.57;1689302;83;22031;-82
2023/01/07 08:05:26;;;;;;;14.75;6.17;;;;;;;3.34;84.01;101540.89;1688771;83;21584;-84
2023/01/07 08:07:53;;;;;;;16.50;6.90;;;;;;;3.31;83.99;101534.16;1669656;83;23064;-92
2023/01/07 08:10:19;;;;;;;73.92;41.77;;;;;;;3.42;84.01;101550.09;1694145;84;21065;-84
2023/01/07 08:12:46;;;;;;;104.58;53.50;;;;;;;3.47;83.97;101555.59;1690909;84;21060;-90
2023/01/07 08:15:13;;;;;;;167.43;104.17;;;;;;;3.50;83.89;101555.80;1698956;84;21947;-94
2023/01/07 08:17:46;;;;;;;287.48;180.63;;;;;;;3.50;83.80;101550.19;1698231;83;21067;-93
2023/01/07 08:20:13;;;;;;;196.43;134.87;;;;;;;3.54;83.75;101552.59;1699270;84;21926;-90
2023/01/07 08:22:59;;;;;;;159.85;111.72;;;;;;;3.55;83.71;101553.11;1698233;83;21550;-93
2023/01/07 08:25:27;;;;;;;250.45;142.18;;;;;;;3.57;83.66;101553.22;1691496;83;21090;-89
2023/01/07 08:27:57;;;;;;;153.55;96.22;;;;;;;3.57;83.68;101550.20;1691797;83;21217;-90
2023/01/07 08:30:26;;;;;;;232.40;146.28;;;;;;;3.56;83.66;101548.39;1697564;83;21065;-91
2023/01/07 08:32:53;;;;;;;201.45;126.58;;;;;;;3.58;83.66;101549.39;1692731;83;21797;-92
2023/01/07 08:35:20;;;;;;;133.75;85.42;;;;;;;3.54;83.55;101548.69;1697830;84;21069;-90
2023/01/07 08:37:47;;;;;;;82.62;51.90;;;;;;;3.54;83.59;101549.99;1697703;83;21061;-88
2023/01/07 08:40:14;;;;;;;94.47;61.05;;;;;;;3.53;83.58;101542.08;1697795;84;21080;-88
2023/01/07 08:42:41;;;;;;;63.50;42.70;;;;;;;3.54;83.58;101549.99;1695869;84;21154;-90
2023/01/07 08:45:10;;;;;;;36.75;24.70;;;;;;;3.55;83.56;101550.88;1696021;84;21712;-93
2023/01/07 08:47:40;;;;;;;121.62;75.22;;;;;;;3.57;83.62;101548.02;1697454;84;21527;-91
2023/01/07 08:50:07;;;;;;;166.28;105.95;;;;;;;3.57;83.52;101554.11;1676312;84;21476;-91
2023/01/07 08:52:34;;;;;;;120.28;82.12;;;;;;;3.57;83.51;101560.62;1664337;85;21071;-89
2023/01/07 08:55:04;;;;;;;119.90;78.35;;;;;;;3.59;83.49;101559.02;1643631;87;21557;-92
2023/01/07 08:57:32;;;;;;;225.70;139.03;;;;;;;3.60;83.49;101565.11;1645421;85;21811;-90
2023/01/07 09:00:01;;;;;;;154.18;96.42;;;;;;;3.62;83.51;101565.73;1644647;87;21079;-88
2023/01/07 09:02:32;;;;;;;77.35;48.87;;;;;;;3.62;83.45;101569.64;1616126;87;21126;-86
2023/01/07 09:04:59;;;;;;;82.92;54.77;;;;;;;3.63;83.51;101569.23;1639914;86;21091;-88
2023/01/07 09:07:26;;;;;;;48.83;33.05;;;;;;;3.61;83.40;101571.73;1645562;86;21068;-89
2023/01/07 09:09:53;;;;;;;82.33;55.48;;;;;;;3.60;83.39;101564.70;1644473;86;21773;-88
2023/01/07 09:12:22;;;;;;;94.37;63.52;;;;;;;3.58;83.39;101561.11;1647069;86;21115;-88
2023/01/07 09:14:57;;;;;;;66.07;43.85;;;;;;;3.58;83.38;101557.61;1644210;86;21654;-90
2023/01/07 09:17:33;;;;;;;44.33;30.60;;;;;;;3.58;83.35;101556.30;1623081;86;21091;-89
2023/01/07 09:20:02;;;;;;;74.15;53.42;;;;;;;3.59;83.45;101559.42;1647516;86;21083;-93
2023/01/07 09:22:31;;;;;;;94.03;72.90;;;;;;;3.62;83.53;101565.73;1646626;86;22084;-89
2023/01/07 09:24:57;;;;;;;48.65;39.20;;;;;;;3.65;83.60;101568.53;1639010;85;21212;-92
2023/01/07 09:27:30;;;;;;;57.10;46.83;;;;;;;3.73;83.64;101568.13;1646199;86;21097;-91
2023/01/07 09:29:57;;;;;;;30.80;23.67;;;;;;;3.77;83.54;101573.63;1648968;85;21565;-91
2023/01/07 09:32:27;;;;;;;19.07;13.75;;;;;;;3.84;83.54;101577.14;1712588;83;21872;-90
2023/01/07 09:34:54;;;;;;;22.75;13.62;;;;;;;3.89;83.45;101580.95;1704737;83;21230;-88
2023/01/07 09:37:21;;;;;;;18.25;12.50;;;;;;;3.94;83.29;101589.46;1706439;83;21907;-90
2023/01/07 09:39:55;;;;;;;17.82;11.28;;;;;;;4.02;83.31;101584.38;1693848;83;21054;-92
2023/01/07 09:42:57;;;;;;;19.77;11.68;;;;;;;4.08;83.22;101592.58;1707217;83;21060;-92
2023/01/07 09:45:30;;;;;;;23.55;12.00;;;;;;;4.17;83.19;101591.86;1711685;82;21860;-90
2023/01/07 09:47:57;;;;;;;;;;;;;;;4.28;83.12;101587.34;1702808;82;21737;-91
2023/01/07 09:50:52;;;;;;;19.17;11.25;;;;;;;4.36;83.10;101582.20;1687323;83;20234;-92
2023/01/07 09:53:25;;;;;;;20.35;11.30;;;;;;;4.46;83.18;101585.87;1688298;83;21064;-92
2023/01/07 09:55:52;;;;;;;20.00;11.40;;;;;;;4.56;82.95;101578.27;1688269;83;21103;-86
2023/01/07 09:58:20;;;;;;;17.85;10.43;;;;;;;4.63;82.80;101575.61;1692040;84;21387;-85
2023/01/07 10:01:11;;;;;;;17.10;11.35;;;;;;;4.65;82.51;101572.70;1678126;84;21876;-86
2023/01/07 10:04:17;;;;;;;16.30;11.33;;;;;;;4.66;82.43;101577.13;1697362;83;21582;-85
2023/01/07 10:07:08;;;;;;;17.05;10.30;;;;;;;4.76;82.50;101582.50;1695303;83;21083;-92
2023/01/07 10:09:46;;;;;;;16.23;11.18;;;;;;;4.88;82.63;101583.27;1695843;84;21389;-86
2023/01/07 10:12:34;;;;;;;21.15;14.93;;;;;;;5.02;82.60;101575.85;1694650;84;21518;-85
2023/01/07 10:15:45;;;;;;;22.35;15.58;;;;;;;5.16;82.50;101582.30;1686979;83;22919;-92
2023/01/07 10:18:40;;;;;;;56.30;39.10;;;;;;;5.28;82.43;101576.94;1696095;84;21096;-93
2023/01/07 10:21:24;;;;;;;47.13;33.18;;;;;;;5.36;82.12;101568.73;1678143;84;21063;-94
2023/01/07 10:24:17;;;;;;;46.08;31.80;;;;;;;5.43;82.13;101556.95;1688226;83;21124;-92
2023/01/07 10:26:52;;;;;;;36.90;24.75;;;;;;;5.52;82.05;101560.48;1695857;83;21057;-92
2023/01/07 10:29:34;;;;;;;34.18;24.82;;;;;;;5.62;82.03;101558.92;1686952;83;21786;-92
2023/01/07 10:32:14;;;;;;;44.90;30.97;;;;;;;5.70;81.85;101561.56;1697248;83;21301;-92
2023/01/07 10:34:48;;;;;;;34.15;23.47;;;;;;;5.78;81.79;101558.08;1697625;83;21136;-84
2023/01/07 10:37:34;;;;;;;49.65;37.10;;;;;;;5.85;81.70;101552.40;1693964;83;21332;-84
2023/01/07 10:40:06;;;;;;;48.35;34.10;;;;;;;5.89;81.47;101543.91;1695738;83;21149;-85
2023/01/07 10:42:49;;;;;;;73.95;50.05;;;;;;;5.93;81.35;101541.07;1696704;83;21794;-84
2023/01/07 10:45:38;;;;;;;76.53;49.90;;;;;;;5.93;81.19;101538.45;1684599;84;21777;-91
2023/01/07 10:48:22;;;;;;;51.55;36.20;;;;;;;5.93;81.05;101537.16;1693557;83;21069;-91
2023/01/07 10:51:06;;;;;;;50.43;35.40;;;;;;;5.90;80.93;101527.86;1717517;82;21076;-91
2023/01/07 10:53:51;;;;;;;30.60;22.13;;;;;;;5.86;80.93;101521.55;1718315;82;21118;-90
2023/01/07 10:56:36;;;;;;;49.83;33.73;;;;;;;5.79;80.70;101516.79;1705852;83;21826;-84
2023/01/07 10:59:02;;;;;;;45.80;32.98;;;;;;;5.68;80.43;101517.48;1710792;83;21658;-85
2023/01/07 11:01:36;;;;;;;116.97;75.10;;;;;;;5.55;80.41;101515.88;1711208;83;21082;-84
2023/01/07 11:04:03;;;;;;;82.00;47.65;;;;;;;5.46;80.39;101519.25;1708192;82;21071;-85
2023/01/07 11:07:02;;;;;;;78.95;48.70;;;;;;;5.34;80.38;101512.92;1713728;82;21107;-92
2023/01/07 11:09:43;;;;;;;100.53;61.00;;;;;;;5.24;80.30;101518.43;1707375;83;23015;-91
2023/01/07 11:12:33;;;;;;;154.23;90.38;;;;;;;5.08;80.36;101512.69;1706121;83;21083;-84
2023/01/07 11:15:05;;;;;;;236.87;122.98;;;;;;;4.96;80.32;101518.09;1703468;82;21099;-84
2023/01/07 11:17:43;;;;;;;209.62;106.58;;;;;;;4.90;80.52;101514.20;1710714;82;21094;-84
2023/01/07 11:20:09;;;;;;;327.85;152.95;;;;;;;4.89;80.70;101512.41;1716062;82;21062;-84
2023/01/07 11:22:37;;;;;;;297.10;143.13;;;;;;;4.88;80.70;101511.52;1707044;83;21900;-84
2023/01/07 11:25:27;;;;;;;232.52;113.52;;;;;;;4.89;80.74;101516.33;1709461;82;21625;-83
2023/01/07 11:28:02;;;;;;;253.02;123.85;;;;;;;4.92;80.83;101508.66;1709387;83;21116;-84
2023/01/07 11:30:31;;;;;;;199.80;105.63;;;;;;;5.00;80.92;101503.52;1708207;83;21570;-84
2023/01/07 11:33:03;;;;;;;250.72;133.63;;;;;;;5.11;80.99;101493.31;1720014;82;21070;-84
2023/01/07 11:35:29;;;;;;;235.85;114.57;;;;;;;5.20;80.94;101492.55;1707332;83;21752;-91
2023/01/07 11:37:57;;;;;;;151.32;83.07;;;;;;;5.28;80.84;101490.39;1708427;83;21959;-91
2023/01/07 11:40:29;;;;;;;88.07;48.17;;;;;;;5.25;80.79;101478.07;1713197;82;21127;-84
2023/01/07 11:43:03;;;;;;;76.87;41.35;;;;;;;5.48;80.96;101493.23;1700353;82;21243;-84